Terminal Aerodrome Forecast
Issued by NWS Green Bay, WI

Home | Current Version | Previous Version | Text Only | Print | Product List | Glossary Off
Versions: 1 2 3 4 5 6 7 8 9 10 11 12 13 14

000
FTUS43 KGRB 021730
TAFGRB
TAF
KGRB 021730Z 0218/0318 04005KT P6SM SCT060
      TEMPO 0222/0302 BKN060
     FM030200 19003KT P6SM SCT050
     FM031500 25012G20KT P6SM SCT045 OVC120=

USA.gov is the U.S. government's official web portal to all federal, state and local government web resources and services.